createdAt,value
2018-06-08T00:01:53.979Z,12.00
2018-06-08T00:05:12.251Z,12.23
2018-06-08T00:08:30.514Z,11.67
2018-06-08T00:11:48.776Z,11.57
2018-06-08T00:15:07.030Z,10.43
2018-06-08T00:18:25.303Z,11.47
2018-06-08T00:21:43.567Z,12.53
2018-06-08T00:25:01.846Z,12.50
2018-06-08T00:28:20.141Z,11.33
2018-06-08T00:31:38.386Z,12.63
2018-06-08T00:34:56.662Z,12.30
2018-06-08T00:38:14.936Z,11.67
2018-06-08T00:41:33.183Z,12.73
2018-06-08T00:44:51.448Z,12.17
2018-06-08T00:48:09.703Z,13.33
2018-06-08T00:51:27.947Z,13.33
2018-06-08T00:54:46.208Z,13.60
2018-06-08T00:58:04.470Z,13.47
2018-06-08T01:01:22.716Z,13.07
2018-06-08T01:04:40.979Z,14.17
2018-06-08T01:07:59.249Z,15.83
2018-06-08T01:11:17.499Z,13.80
2018-06-08T01:14:35.772Z,13.30
2018-06-08T01:17:54.031Z,15.07
2018-06-08T01:21:12.279Z,13.60
2018-06-08T01:24:30.588Z,14.40
2018-06-08T01:27:48.854Z,11.30
2018-06-08T01:31:07.123Z,12.60
2018-06-08T01:34:25.378Z,13.03
2018-06-08T01:37:43.648Z,14.80
2018-06-08T01:41:01.904Z,16.37
2018-06-08T01:44:20.273Z,16.47
2018-06-08T01:47:38.508Z,16.60
2018-06-08T01:50:56.787Z,16.40
2018-06-08T01:54:15.076Z,16.47
2018-06-08T01:57:33.328Z,15.87
2018-06-08T02:00:51.616Z,16.10
2018-06-08T02:04:09.876Z,15.90
2018-06-08T02:07:28.136Z,15.43
2018-06-08T02:10:46.413Z,16.00
2018-06-08T02:14:04.687Z,15.80
2018-06-08T02:17:22.938Z,17.53
2018-06-08T02:20:41.791Z,16.47
2018-06-08T02:24:00.073Z,17.17
2018-06-08T02:27:18.327Z,17.30
2018-06-08T02:30:36.600Z,17.97
2018-06-08T02:33:54.892Z,17.43
2018-06-08T02:37:13.130Z,20.20
2018-06-08T02:40:31.387Z,18.60
2018-06-08T02:43:49.698Z,19.60
2018-06-08T02:47:07.947Z,21.10
2018-06-08T02:50:26.311Z,20.93
2018-06-08T02:53:44.668Z,20.60
2018-06-08T02:57:02.940Z,20.10
2018-06-08T03:00:21.296Z,19.07
2018-06-08T03:03:39.539Z,18.40
2018-06-08T03:06:57.805Z,18.23
2018-06-08T03:10:16.072Z,18.40
2018-06-08T03:13:34.918Z,20.10
2018-06-08T03:16:53.264Z,19.17
2018-06-08T03:20:11.523Z,19.93
2018-06-08T03:23:29.803Z,19.67
2018-06-08T03:26:47.809Z,19.17
2018-06-08T03:30:06.106Z,19.30
2018-06-08T03:33:24.358Z,20.13
2018-06-08T03:36:42.410Z,19.70
2018-06-08T03:40:00.680Z,21.73
2018-06-08T03:43:18.922Z,18.83
2018-06-08T03:46:37.192Z,19.13
2018-06-08T03:49:55.481Z,19.80
2018-06-08T03:53:13.792Z,21.20
2018-06-08T03:56:32.075Z,20.53
2018-06-08T03:59:50.360Z,20.80
2018-06-08T04:03:08.633Z,21.07
2018-06-08T04:06:26.891Z,21.97
2018-06-08T04:09:45.152Z,20.57
2018-06-08T04:13:03.456Z,18.80
2018-06-08T04:16:21.727Z,19.40
2018-06-08T04:19:40.085Z,19.67
2018-06-08T04:22:58.353Z,19.73
2018-06-08T04:26:16.688Z,18.67
2018-06-08T04:29:34.944Z,18.03
2018-06-08T04:32:53.266Z,20.50
2018-06-08T04:36:11.545Z,20.07
2018-06-08T04:39:29.823Z,18.17
2018-06-08T04:42:47.838Z,20.80
2018-06-08T04:46:06.116Z,20.30
2018-06-08T04:49:24.370Z,19.17
2018-06-08T04:52:42.632Z,19.57
2018-06-08T04:56:00.902Z,20.47
2018-06-08T04:59:19.148Z,21.03
2018-06-08T05:02:37.419Z,20.90
2018-06-08T05:05:55.699Z,19.80
2018-06-08T05:09:13.952Z,18.53
2018-06-08T05:12:32.211Z,19.03
2018-06-08T05:15:50.484Z,18.20
2018-06-08T05:19:08.748Z,18.70
2018-06-08T05:22:27.024Z,17.67
2018-06-08T05:25:45.292Z,18.43
2018-06-08T05:29:03.624Z,17.83
2018-06-08T05:32:21.908Z,17.03
2018-06-08T05:35:40.188Z,16.63
2018-06-08T05:38:58.455Z,16.50
2018-06-08T05:42:16.731Z,16.70
2018-06-08T05:45:34.718Z,15.43
2018-06-08T05:48:52.990Z,16.97
2018-06-08T05:52:11.258Z,17.27
2018-06-08T05:55:29.521Z,15.73
2018-06-08T05:58:47.527Z,16.53
2018-06-08T06:02:06.450Z,17.40
2018-06-08T06:05:24.764Z,17.23
2018-06-08T06:08:43.040Z,16.90
2018-06-08T06:12:01.337Z,17.70
2018-06-08T06:15:19.599Z,17.83
2018-06-08T06:18:37.881Z,18.20
2018-06-08T06:21:56.155Z,18.27
2018-06-08T06:25:14.442Z,16.43
2018-06-08T06:28:32.712Z,18.23
2018-06-08T06:31:50.977Z,18.63
2018-06-08T06:35:09.249Z,16.97
2018-06-08T06:38:27.515Z,17.43
2018-06-08T06:41:45.785Z,16.07
2018-06-08T06:45:04.543Z,16.87
2018-06-08T06:48:22.967Z,17.93
2018-06-08T06:51:41.217Z,16.20
2018-06-08T06:54:59.501Z,13.63
2018-06-08T06:58:17.795Z,15.70
2018-06-08T07:01:36.047Z,15.87
2018-06-08T07:04:54.961Z,17.10
2018-06-08T07:08:13.273Z,16.30
2018-06-08T07:11:31.549Z,14.43
2018-06-08T07:14:49.812Z,14.93
2018-06-08T07:18:08.100Z,15.73
2018-06-08T07:21:26.405Z,15.45
2018-06-08T07:24:44.749Z,17.20
2018-06-08T07:28:02.976Z,15.13
2018-06-08T07:31:21.255Z,15.13
2018-06-08T07:34:39.528Z,13.53
2018-06-08T07:37:57.599Z,13.10
2018-06-08T07:41:16.305Z,12.53
2018-06-08T07:44:34.589Z,15.03
2018-06-08T07:47:52.879Z,14.85
2018-06-08T07:51:11.148Z,14.13
2018-06-08T07:54:29.416Z,11.90
2018-06-08T07:57:47.732Z,12.28
2018-06-08T08:01:06.067Z,13.10
2018-06-08T08:04:24.326Z,14.03
2018-06-08T08:07:42.596Z,14.20
2018-06-08T08:11:00.864Z,12.37
2018-06-08T08:14:19.129Z,13.62
2018-06-08T08:17:37.398Z,13.93
2018-06-08T08:20:55.674Z,13.85
2018-06-08T08:24:14.008Z,13.20
2018-06-08T08:27:32.272Z,14.00
2018-06-08T08:30:50.569Z,11.25
2018-06-08T08:34:08.847Z,11.53
2018-06-08T08:37:27.102Z,12.63
2018-06-08T08:40:45.368Z,11.20
2018-06-08T08:44:04.197Z,10.00
2018-06-08T08:47:22.443Z,11.25
2018-06-08T08:50:40.742Z,10.88
2018-06-08T08:53:59.028Z,10.80
2018-06-08T08:57:17.287Z,10.80
2018-06-08T09:00:35.578Z,10.80
2018-06-08T09:03:53.862Z,10.45
2018-06-08T09:07:11.876Z,10.72
2018-06-08T09:10:30.159Z,11.18
2018-06-08T09:13:48.156Z,10.78
2018-06-08T09:17:06.460Z,11.73
2018-06-08T09:20:24.728Z,12.03
2018-06-08T09:23:43.009Z,13.95
2018-06-08T09:27:01.297Z,11.63
2018-06-08T09:30:19.560Z,12.95
2018-06-08T09:33:37.836Z,11.83
2018-06-08T09:36:56.104Z,12.23
2018-06-08T09:40:14.360Z,13.35
2018-06-08T09:43:32.625Z,13.00
2018-06-08T09:46:50.904Z,11.28
2018-06-08T09:50:09.697Z,12.80
2018-06-08T09:53:27.963Z,12.80
2018-06-08T09:56:46.233Z,10.23
2018-06-08T10:00:04.571Z,10.30
2018-06-08T10:03:22.863Z,11.45
2018-06-08T10:06:41.146Z,10.35
2018-06-08T10:09:59.428Z,10.58
2018-06-08T10:13:17.709Z,10.28
2018-06-08T10:16:36.015Z,9.88
2018-06-08T10:19:54.272Z,8.90
2018-06-08T10:23:12.549Z,9.03
2018-06-08T10:26:31.647Z,9.30
2018-06-08T10:29:49.959Z,8.50
2018-06-08T10:33:08.231Z,8.75
2018-06-08T10:36:26.494Z,8.45
2018-06-08T10:39:44.769Z,7.20
2018-06-08T10:43:03.063Z,8.73
2018-06-08T10:46:21.339Z,7.53
2018-06-08T10:49:39.612Z,6.92
2018-06-08T10:52:57.896Z,7.05
2018-06-08T10:56:16.285Z,6.45
2018-06-08T10:59:34.536Z,8.20
2018-06-08T11:02:52.795Z,7.58
2018-06-08T11:06:11.096Z,7.62
2018-06-08T11:09:29.367Z,7.85
2018-06-08T11:12:47.675Z,7.62
2018-06-08T11:16:05.994Z,6.60
2018-06-08T11:19:24.280Z,7.33
2018-06-08T11:22:42.283Z,6.55
2018-06-08T11:26:00.556Z,6.50
2018-06-08T11:29:18.841Z,6.65
2018-06-08T11:32:37.163Z,6.62
2018-06-08T11:35:55.418Z,6.53
2018-06-08T11:39:13.709Z,6.53
2018-06-08T11:42:31.956Z,6.45
2018-06-08T11:45:50.278Z,5.47
2018-06-08T11:49:08.525Z,5.87
2018-06-08T11:52:26.797Z,5.55
2018-06-08T11:55:45.045Z,4.92
2018-06-08T11:59:03.338Z,5.45
2018-06-08T12:02:21.611Z,5.92
2018-06-08T12:05:39.881Z,6.08
2018-06-08T12:08:58.145Z,6.40
2018-06-08T12:12:16.399Z,6.08
2018-06-08T12:15:34.652Z,5.87
2018-06-08T12:18:52.928Z,5.92
2018-06-08T12:22:11.202Z,6.72
2018-06-08T12:25:29.446Z,6.17
2018-06-08T12:28:47.714Z,6.28
2018-06-08T12:32:06.054Z,6.92
2018-06-08T12:35:24.050Z,6.20
2018-06-08T12:38:42.336Z,6.33
2018-06-08T12:42:00.600Z,5.87
2018-06-08T12:45:18.920Z,6.28
2018-06-08T12:48:37.204Z,7.05
2018-06-08T12:51:55.452Z,5.95
2018-06-08T12:55:13.727Z,6.37
2018-06-08T12:58:32.211Z,6.12
2018-06-08T13:01:50.490Z,6.62
2018-06-08T13:05:08.772Z,6.83
2018-06-08T13:08:27.048Z,6.83
2018-06-08T13:11:45.328Z,6.87
2018-06-08T13:15:03.629Z,6.33
2018-06-08T13:18:21.888Z,5.90
2018-06-08T13:21:40.153Z,8.28
2018-06-08T13:24:58.460Z,6.87
2018-06-08T13:28:16.716Z,6.40
2018-06-08T13:31:34.987Z,6.47
2018-06-08T13:34:53.248Z,6.37
2018-06-08T13:38:11.516Z,6.97
2018-06-08T13:41:29.507Z,6.45
2018-06-08T13:44:48.027Z,6.00
2018-06-08T13:48:07.772Z,6.55
2018-06-08T13:51:26.028Z,6.67
2018-06-08T13:54:44.292Z,6.05
2018-06-08T13:58:02.319Z,6.12
2018-06-08T14:01:21.137Z,6.00
2018-06-08T14:04:39.417Z,6.62
2018-06-08T14:07:57.699Z,6.17
2018-06-08T14:11:15.787Z,7.35
2018-06-08T14:14:35.831Z,6.37
2018-06-08T14:17:54.501Z,6.55
2018-06-08T14:21:12.918Z,6.28
2018-06-08T14:24:31.538Z,6.35
2018-06-08T14:27:49.910Z,5.65
2018-06-08T14:31:08.355Z,6.42
2018-06-08T14:34:26.633Z,6.25
2018-06-08T14:37:44.901Z,6.00
2018-06-08T14:41:02.944Z,6.30
2018-06-08T14:44:20.946Z,6.67
2018-06-08T14:47:39.207Z,6.95
2018-06-08T14:50:57.502Z,6.70
2018-06-08T14:54:15.771Z,6.65
2018-06-08T14:57:34.401Z,6.62
2018-06-08T15:00:53.236Z,6.87
2018-06-08T15:04:11.767Z,6.60
2018-06-08T15:07:30.112Z,6.80
2018-06-08T15:10:48.394Z,6.37
2018-06-08T15:14:06.682Z,7.15
2018-06-08T15:17:25.588Z,6.92
2018-06-08T15:20:44.363Z,6.60
2018-06-08T15:24:02.816Z,6.62
2018-06-08T15:27:21.165Z,6.55
2018-06-08T15:30:39.438Z,6.47
2018-06-08T15:33:58.354Z,7.20
2018-06-08T15:37:16.662Z,5.67
2018-06-08T15:40:35.182Z,6.10
2018-06-08T15:43:53.780Z,5.42
2018-06-08T15:47:12.149Z,5.55
2018-06-08T15:50:30.980Z,5.58
2018-06-08T15:53:50.899Z,6.20
2018-06-08T15:57:09.196Z,5.53
2018-06-08T16:00:27.485Z,5.90
2018-06-08T16:03:45.793Z,5.70
2018-06-08T16:07:04.110Z,6.20
2018-06-08T16:10:22.395Z,5.90
2018-06-08T16:13:40.472Z,5.70
2018-06-08T16:16:58.782Z,5.43
2018-06-08T16:20:17.543Z,6.20
2018-06-08T16:23:35.828Z,6.20
2018-06-08T16:26:54.138Z,6.83
2018-06-08T16:30:12.942Z,6.07
2018-06-08T16:33:31.234Z,6.50
2018-06-08T16:36:49.517Z,6.10
2018-06-08T16:40:07.808Z,6.27
2018-06-08T16:43:26.080Z,5.70
2018-06-08T16:46:44.353Z,6.30
2018-06-08T16:50:02.375Z,6.60
2018-06-08T16:53:20.640Z,6.50
2018-06-08T16:56:38.903Z,6.33
2018-06-08T16:59:57.196Z,6.53
2018-06-08T17:03:15.442Z,6.40
2018-06-08T17:06:33.737Z,6.03
2018-06-08T17:09:51.735Z,6.45
2018-06-08T17:13:12.438Z,6.28
2018-06-08T17:16:33.574Z,6.03
2018-06-08T17:19:51.919Z,6.12
2018-06-08T17:23:10.215Z,6.70
2018-06-08T17:26:28.504Z,6.50
2018-06-08T17:29:46.817Z,5.50
2018-06-08T17:33:05.087Z,5.83
2018-06-08T17:36:23.344Z,5.23
2018-06-08T17:39:41.623Z,5.40
2018-06-08T17:42:59.887Z,5.70
2018-06-08T17:46:18.216Z,5.17
2018-06-08T17:49:36.478Z,5.57
2018-06-08T17:52:54.767Z,4.87
2018-06-08T17:56:13.013Z,5.40
2018-06-08T17:59:31.298Z,6.87
2018-06-08T18:02:49.928Z,6.20
2018-06-08T18:06:08.214Z,7.53
2018-06-08T18:09:26.513Z,5.83
2018-06-08T18:12:44.546Z,5.93
2018-06-08T18:16:02.812Z,5.90
2018-06-08T18:19:21.121Z,6.57
2018-06-08T18:22:39.379Z,6.60
2018-06-08T18:25:57.636Z,6.73
2018-06-08T18:29:15.640Z,6.63
2018-06-08T18:32:33.905Z,7.43
2018-06-08T18:35:52.197Z,6.63
2018-06-08T18:39:10.492Z,6.13
2018-06-08T18:42:28.765Z,6.17
2018-06-08T18:45:47.009Z,5.40
2018-06-08T18:49:05.319Z,6.50
2018-06-08T18:52:23.606Z,6.20
2018-06-08T18:55:41.910Z,6.13
2018-06-08T18:59:00.176Z,6.27
2018-06-08T19:02:18.455Z,6.63
2018-06-08T19:05:36.723Z,6.37
2018-06-08T19:08:54.985Z,6.57
2018-06-08T19:12:13.272Z,7.00
2018-06-08T19:15:31.531Z,6.33
2018-06-08T19:18:49.837Z,6.70
2018-06-08T19:22:08.081Z,6.20
2018-06-08T19:25:26.360Z,6.60
2018-06-08T19:28:44.640Z,7.03
2018-06-08T19:32:03.310Z,6.53
2018-06-08T19:35:21.667Z,7.40
2018-06-08T19:38:39.850Z,7.67
2018-06-08T19:41:58.428Z,7.63
2018-06-08T19:45:16.854Z,7.17
2018-06-08T19:48:35.852Z,11.37
2018-06-08T19:51:54.589Z,7.23
2018-06-08T19:55:13.400Z,6.50
2018-06-08T19:58:32.674Z,5.03
2018-06-08T20:01:50.904Z,4.23
2018-06-08T20:05:09.188Z,4.80
2018-06-08T20:08:27.479Z,3.20
2018-06-08T20:11:45.752Z,3.37
2018-06-08T20:15:04.744Z,3.07
2018-06-08T20:18:22.855Z,3.00
2018-06-08T20:21:41.123Z,2.83
2018-06-08T20:24:59.439Z,3.17
2018-06-08T20:28:17.712Z,2.70
2018-06-08T20:31:36.048Z,3.20
2018-06-08T20:34:54.304Z,3.03
2018-06-08T20:38:12.577Z,3.10
2018-06-08T20:41:30.844Z,2.80
2018-06-08T20:44:49.138Z,3.00
2018-06-08T20:48:07.866Z,2.70
2018-06-08T20:51:26.159Z,3.27
2018-06-08T20:54:44.407Z,3.10
2018-06-08T20:58:02.762Z,3.33
2018-06-08T21:01:21.052Z,3.07
2018-06-08T21:04:39.453Z,3.73
2018-06-08T21:07:57.715Z,3.73
2018-06-08T21:11:15.993Z,3.83
2018-06-08T21:14:34.257Z,3.73
2018-06-08T21:17:52.575Z,3.90
2018-06-08T21:21:11.151Z,3.50
2018-06-08T21:24:29.434Z,3.77
2018-06-08T21:27:47.749Z,4.43
2018-06-08T21:31:06.195Z,4.10
2018-06-08T21:34:24.505Z,3.70
2018-06-08T21:37:42.773Z,4.10
2018-06-08T21:41:01.041Z,4.40
2018-06-08T21:44:19.317Z,5.70
2018-06-08T21:47:37.796Z,3.83
2018-06-08T21:50:56.158Z,3.80
2018-06-08T21:54:14.470Z,4.30
2018-06-08T21:57:32.816Z,4.30
2018-06-08T22:00:51.084Z,4.30
2018-06-08T22:04:09.359Z,4.10
2018-06-08T22:07:27.772Z,4.00
2018-06-08T22:10:46.108Z,5.43
2018-06-08T22:14:04.553Z,4.50
2018-06-08T22:17:23.906Z,4.60
